Time;durP1;ratioP1;P1;durP2;ratioP2;P2;SDS_P1;SDS_P2;PMS_P1;PMS_P2;Temp;Humidity;BMP_temperature;BMP_pressure;BME280_temperature;BME280_humidity;BME280_pressure;Samples;Min_cycle;Max_cycle;Signal;HPM_P1;HPM_P2
2022/01/15 00:00:35;;;;;;;;;101.67;87.67;;;;;-142.59;100.00;56100.38;4914237;28;51003;-66
2022/01/15 00:03:01;;;;;;;;;104.00;87.67;;;;;-142.59;100.00;56100.38;4913961;28;49643;-70
2022/01/15 00:05:26;;;;;;;;;97.00;81.00;;;;;-142.59;100.00;56100.38;4914217;28;49771;-68
2022/01/15 00:07:52;;;;;;;;;97.00;77.33;;;;;-142.59;100.00;56100.38;4897296;28;49813;-67
2022/01/15 00:10:21;;;;;;;;;97.00;76.33;;;;;-142.59;100.00;56100.38;4913988;28;51071;-67
2022/01/15 00:12:47;;;;;;;;;100.00;83.33;;;;;-142.59;100.00;56100.38;4913937;28;49962;-71
2022/01/15 00:15:20;;;;;;;;;96.00;80.00;;;;;-142.59;100.00;56100.38;4914187;28;49844;-69
2022/01/15 00:20:11;;;;;;;;;102.00;89.33;;;;;-142.59;100.00;56100.38;4913868;28;50505;-68
2022/01/15 00:22:36;;;;;;;;;100.67;84.33;;;;;-142.59;100.00;56100.38;4914095;28;49851;-71
2022/01/15 00:25:02;;;;;;;;;102.33;85.33;;;;;-142.59;100.00;56100.38;4914091;28;49793;-67
2022/01/15 00:27:28;;;;;;;;;102.33;91.00;;;;;-142.59;100.00;56100.38;4913927;28;49659;-67
2022/01/15 00:29:53;;;;;;;;;101.33;85.67;;;;;-142.59;100.00;56100.38;4913513;28;50469;-69
2022/01/15 00:32:18;;;;;;;;;112.00;99.00;;;;;-142.59;100.00;56100.38;4913874;28;49691;-67
2022/01/15 00:34:43;;;;;;;;;120.67;109.67;;;;;-142.59;100.00;56100.38;4913582;28;49813;-68
2022/01/15 00:37:09;;;;;;;;;129.25;115.50;;;;;-142.59;100.00;56100.38;4914243;28;49962;-70
2022/01/15 00:39:34;;;;;;;;;153.25;133.75;;;;;-142.59;100.00;56100.38;4913583;28;50150;-71
2022/01/15 00:42:00;;;;;;;;;141.50;127.00;;;;;-142.59;100.00;56100.38;4913744;28;49937;-68
2022/01/15 00:44:25;;;;;;;;;156.25;140.00;;;;;-142.59;100.00;56100.38;4913604;28;49727;-67
2022/01/15 00:46:51;;;;;;;;;155.50;138.75;;;;;-142.59;100.00;56100.38;4896081;28;49625;-70
2022/01/15 00:49:16;;;;;;;;;178.75;153.00;;;;;-142.59;100.00;56100.38;4913579;28;49808;-70
2022/01/15 00:51:42;;;;;;;;;156.50;138.00;;;;;-142.59;100.00;56100.38;4913830;28;49683;-68
2022/01/15 00:54:07;;;;;;;;;164.75;148.50;;;;;-142.59;100.00;56100.38;4913860;28;49895;-69
2022/01/15 00:56:33;;;;;;;;;170.75;144.75;;;;;-142.59;100.00;56100.38;4913630;28;49742;-70
2022/01/15 00:58:58;;;;;;;;;173.25;151.25;;;;;-142.59;100.00;56100.38;4913220;28;50485;-70
2022/01/15 01:01:24;;;;;;;;;158.50;143.00;;;;;-142.59;100.00;56100.38;4896030;28;49922;-69
2022/01/15 01:03:50;;;;;;;;;159.75;140.75;;;;;-142.59;100.00;56100.38;4895856;28;50180;-70
2022/01/15 01:06:16;;;;;;;;;165.50;143.50;;;;;-142.59;100.00;56100.38;4913359;28;49785;-67
2022/01/15 01:08:41;;;;;;;;;149.25;133.25;;;;;-142.59;100.00;56100.38;4912999;28;49806;-67
2022/01/15 01:11:55;;;;;;;;;159.00;143.25;;;;;-142.59;100.00;56100.38;4912895;28;49685;-68
2022/01/15 01:24:22;;;;;;;;;142.50;124.25;;;;;-142.59;100.00;56100.38;4912846;28;49795;-70
2022/01/15 01:27:25;;;;;;;;;149.50;134.50;;;;;-142.59;100.00;56100.38;4913450;28;50117;-68
2022/01/15 01:32:10;;;;;;;;;126.50;120.50;;;;;-142.59;100.00;56100.38;4912784;28;49696;-67
2022/01/15 01:34:39;;;;;;;;;138.50;124.75;;;;;-142.59;100.00;56100.38;4912791;28;49795;-68
2022/01/15 01:45:11;;;;;;;;;138.50;123.00;;;;;-142.59;100.00;56100.38;4913019;28;49827;-68
2022/01/15 01:47:42;;;;;;;;;130.75;119.75;;;;;-142.59;100.00;56100.38;4912069;28;49858;-67
2022/01/15 01:50:21;;;;;;;;;133.50;126.00;;;;;-142.59;100.00;56100.38;4912607;28;49833;-66
2022/01/15 01:52:50;;;;;;;;;139.00;121.50;;;;;-142.59;100.00;56100.38;4894679;28;50101;-71
2022/01/15 01:55:17;;;;;;;;;130.25;115.00;;;;;-142.59;100.00;56100.38;4912359;28;49689;-66
2022/01/15 01:57:43;;;;;;;;;137.00;118.25;;;;;-142.59;100.00;56100.38;4912384;28;50217;-67
2022/01/15 02:00:11;;;;;;;;;144.00;118.25;;;;;-142.59;100.00;56100.38;4912439;28;50288;-66
2022/01/15 02:02:37;;;;;;;;;127.75;115.00;;;;;-142.59;100.00;56100.38;4912250;28;49864;-66
2022/01/15 02:05:03;;;;;;;;;130.25;122.00;;;;;-142.59;100.00;56100.38;4895569;28;49890;-67
2022/01/15 02:07:29;;;;;;;;;137.25;115.25;;;;;-142.59;100.00;56100.38;4912742;28;49653;-69
2022/01/15 02:09:57;;;;;;;;;135.25;121.50;;;;;-142.59;100.00;56100.38;4912449;28;49846;-68
2022/01/15 02:12:22;;;;;;;;;110.75;99.25;;;;;-142.59;100.00;56100.38;4912404;28;49832;-70
2022/01/15 02:14:48;;;;;;;;;125.50;109.50;;;;;-142.59;100.00;56100.38;4895143;28;49746;-71
2022/01/15 02:17:19;;;;;;;;;130.50;118.00;;;;;-142.59;100.00;56100.38;4912537;28;49540;-67
2022/01/15 02:20:08;;;;;;;;;116.00;102.75;;;;;-142.59;100.00;56100.38;4912574;28;49650;-68
2022/01/15 02:25:15;;;;;;;;;123.00;116.00;;;;;-142.59;100.00;56100.38;4912479;28;49611;-67
2022/01/15 02:27:40;;;;;;;;;115.00;106.00;;;;;-142.59;100.00;56100.38;4912316;28;49596;-70
2022/01/15 02:30:06;;;;;;;;;130.75;114.50;;;;;-142.59;100.00;56100.38;4912349;28;49955;-68
2022/01/15 02:32:32;;;;;;;;;119.33;107.33;;;;;-142.59;100.00;56100.38;4912322;28;49830;-70
2022/01/15 02:34:59;;;;;;;;;115.75;101.50;;;;;-142.59;100.00;56100.38;4912232;28;49744;-70
2022/01/15 02:37:25;;;;;;;;;128.50;114.00;;;;;-142.59;100.00;56100.38;4895045;28;49781;-68
2022/01/15 02:39:50;;;;;;;;;128.00;112.50;;;;;-142.59;100.00;56100.38;4912377;28;50769;-67
2022/01/15 02:42:15;;;;;;;;;122.50;108.50;;;;;-142.59;100.00;56100.38;4911802;28;49699;-69
2022/01/15 02:44:43;;;;;;;;;113.00;103.25;;;;;-142.59;100.00;56100.38;4912300;28;49815;-67
2022/01/15 02:49:34;;;;;;;;;117.75;111.00;;;;;-142.59;100.00;56100.38;4912055;28;50644;-67
2022/01/15 02:52:00;;;;;;;;;37.75;20.00;;;;;-142.59;100.00;56100.38;4912489;28;49660;-67
2022/01/15 02:54:25;;;;;;;;;120.50;112.25;;;;;-142.59;100.00;56100.38;4912263;28;49968;-67
2022/01/15 02:56:52;;;;;;;;;125.50;111.50;;;;;-142.59;100.00;56100.38;4912337;28;49847;-66
2022/01/15 02:59:23;;;;;;;;;133.75;120.00;;;;;-142.59;100.00;56100.38;4915061;28;49931;-67
2022/01/15 03:01:49;;;;;;;;;131.00;119.75;;;;;-142.59;100.00;56100.38;4915091;28;49859;-67
2022/01/15 03:04:16;;;;;;;;;121.25;106.50;;;;;-142.59;100.00;56100.38;4894694;28;49805;-66
2022/01/15 03:06:42;;;;;;;;;119.75;102.00;;;;;-142.59;100.00;56100.38;4911050;28;49912;-67
2022/01/15 03:09:07;;;;;;;;;130.50;119.00;;;;;-142.59;100.00;56100.38;4914887;28;50924;-67
2022/01/15 03:11:32;;;;;;;;;136.00;117.00;;;;;-142.59;100.00;56100.38;4915304;28;49769;-67
2022/01/15 03:13:58;;;;;;;;;123.50;115.50;;;;;-142.59;100.00;56100.38;4914831;28;50207;-66
2022/01/15 03:16:23;;;;;;;;;126.00;111.25;;;;;-142.59;100.00;56100.38;4914870;28;49608;-68
2022/01/15 03:18:50;;;;;;;;;115.75;109.50;;;;;-142.59;100.00;56100.38;4914820;28;50552;-67
2022/01/15 03:21:15;;;;;;;;;116.00;103.67;;;;;-142.59;100.00;56100.38;4914692;28;49687;-66
2022/01/15 03:23:41;;;;;;;;;121.50;108.75;;;;;-142.59;100.00;56100.38;4897268;28;49807;-67
2022/01/15 03:26:12;;;;;;;;;111.00;105.00;;;;;-142.59;100.00;56100.38;4915028;28;49741;-66
2022/01/15 03:28:37;;;;;;;;;119.50;106.75;;;;;-142.59;100.00;56100.38;4914410;28;50609;-67
2022/01/15 03:31:03;;;;;;;;;115.67;103.00;;;;;-142.59;100.00;56100.38;4914508;28;49639;-66
2022/01/15 03:33:29;;;;;;;;;109.67;100.33;;;;;-142.59;100.00;56100.38;4914643;28;49596;-67
2022/01/15 03:35:54;;;;;;;;;118.00;103.67;;;;;-142.59;100.00;56100.38;4914811;28;49790;-67
2022/01/15 03:38:20;;;;;;;;;114.67;102.33;;;;;-142.59;100.00;56100.38;4914201;28;49934;-67
2022/01/15 03:40:45;;;;;;;;;106.33;100.67;;;;;-142.59;100.00;56100.38;4915015;28;49951;-67
2022/01/15 03:43:11;;;;;;;;;115.67;96.67;;;;;-142.59;100.00;56100.38;4914740;28;50265;-66
2022/01/15 03:45:36;;;;;;;;;101.67;87.33;;;;;-142.59;100.00;56100.38;4914593;28;49642;-66
2022/01/15 03:48:02;;;;;;;;;113.00;94.00;;;;;-142.59;100.00;56100.38;4914366;28;50789;-67
2022/01/15 03:50:28;;;;;;;;;109.00;94.00;;;;;-142.59;100.00;56100.38;4914462;28;49859;-66
2022/01/15 03:52:55;;;;;;;;;110.00;93.67;;;;;-142.59;100.00;56100.38;4914504;28;49681;-67
2022/01/15 03:55:21;;;;;;;;;106.33;98.67;;;;;-142.59;100.00;56100.38;4914892;28;49914;-67
2022/01/15 03:57:47;;;;;;;;;107.67;94.00;;;;;-142.59;100.00;56100.38;4913982;28;50824;-67
2022/01/15 04:00:18;;;;;;;;;108.67;96.33;;;;;-142.59;100.00;56100.38;4914171;28;49643;-67
2022/01/15 04:02:44;;;;;;;;;104.33;91.33;;;;;-142.59;100.00;56100.38;4914078;28;49690;-66
2022/01/15 04:05:11;;;;;;;;;111.00;97.33;;;;;-142.59;100.00;56100.38;4914424;28;49954;-66
2022/01/15 04:07:36;;;;;;;;;106.33;96.00;;;;;-142.59;100.00;56100.38;4914188;28;50529;-67
2022/01/15 04:10:05;;;;;;;;;110.33;96.00;;;;;-142.59;100.00;56100.38;4913262;28;49684;-68
2022/01/15 04:12:31;;;;;;;;;108.67;96.33;;;;;-142.59;100.00;56100.38;4913898;28;49653;-71
2022/01/15 04:14:56;;;;;;;;;118.67;104.33;;;;;-142.59;100.00;56100.38;4914194;28;49894;-68
2022/01/15 04:17:21;;;;;;;;;117.33;101.33;;;;;-142.59;100.00;56100.38;4913667;28;50580;-70
2022/01/15 04:19:47;;;;;;;;;103.00;86.33;;;;;-142.59;100.00;56100.38;4913928;28;49784;-70
2022/01/15 04:22:12;;;;;;;;;106.33;91.00;;;;;-142.59;100.00;56100.38;4914412;28;49940;-68
2022/01/15 04:24:37;;;;;;;;;106.33;88.33;;;;;-142.59;100.00;56100.38;4914246;28;49829;-72
2022/01/15 04:27:03;;;;;;;;;109.00;96.00;;;;;-142.59;100.00;56100.38;4913682;28;50435;-68
2022/01/15 04:29:31;;;;;;;;;104.00;88.00;;;;;-142.59;100.00;56100.38;4913941;28;49808;-67
2022/01/15 04:31:56;;;;;;;;;114.67;98.67;;;;;-142.59;100.00;56100.38;4914037;28;49579;-67
2022/01/15 04:34:27;;;;;;;;;105.67;92.00;;;;;-142.59;100.00;56100.38;4914114;28;49902;-67
2022/01/15 04:37:03;;;;;;;;;106.33;91.67;;;;;-142.59;100.00;56100.38;4913590;28;49984;-67
2022/01/15 04:39:29;;;;;;;;;105.67;92.00;;;;;-142.59;100.00;56100.38;4913845;28;49761;-68
2022/01/15 04:41:54;;;;;;;;;105.00;88.00;;;;;-142.59;100.00;56100.38;4913625;28;49674;-65
2022/01/15 04:44:20;;;;;;;;;103.67;88.00;;;;;-142.59;100.00;56100.38;4914186;28;49638;-66
2022/01/15 04:46:45;;;;;;;;;100.33;87.00;;;;;-142.59;100.00;56100.38;4913416;28;51028;-67
2022/01/15 04:49:11;;;;;;;;;103.67;89.33;;;;;-142.59;100.00;56100.38;4913799;28;49712;-66
2022/01/15 04:51:36;;;;;;;;;107.33;92.67;;;;;-142.59;100.00;56100.38;4913630;28;49785;-66
2022/01/15 04:54:02;;;;;;;;;112.00;96.00;;;;;-142.59;100.00;56100.38;4914125;28;49919;-66
2022/01/15 04:56:28;;;;;;;;;101.33;84.67;;;;;-142.59;100.00;56100.38;4913347;28;51001;-66
2022/01/15 04:58:53;;;;;;;;;115.67;97.67;;;;;-142.59;100.00;56100.38;4913260;28;49649;-66
2022/01/15 05:01:19;;;;;;;;;110.33;99.67;;;;;-142.59;100.00;56100.38;4913415;28;50423;-66
2022/01/15 05:03:44;;;;;;;;;112.00;101.67;;;;;-142.59;100.00;56100.38;4913852;28;49785;-67
2022/01/15 05:06:09;;;;;;;;;108.33;97.33;;;;;-142.59;100.00;56100.38;4913342;28;49780;-66
2022/01/15 05:08:35;;;;;;;;;112.00;103.33;;;;;-142.59;100.00;56100.38;4913426;28;49860;-65
2022/01/15 05:11:13;;;;;;;;;116.00;103.67;;;;;-142.59;100.00;56100.38;4913480;28;49718;-67
2022/01/15 05:13:39;;;;;;;;;101.00;86.67;;;;;-142.59;100.00;56100.38;4913359;28;49761;-66
2022/01/15 05:16:05;;;;;;;;;112.33;99.00;;;;;-142.59;100.00;56100.38;4895894;28;51811;-66
2022/01/15 05:18:31;;;;;;;;;113.67;98.33;;;;;-142.59;100.00;56100.38;4913348;28;49739;-65
2022/01/15 05:20:57;;;;;;;;;109.33;96.00;;;;;-142.59;100.00;56100.38;4894808;28;50052;-67
2022/01/15 05:23:22;;;;;;;;;117.00;105.00;;;;;-142.59;100.00;56100.38;4913202;28;49660;-66
2022/01/15 05:25:48;;;;;;;;;106.33;95.33;;;;;-142.59;100.00;56100.38;4913503;28;50912;-67
2022/01/15 05:28:13;;;;;;;;;110.33;95.00;;;;;-142.59;100.00;56100.38;4913184;28;49653;-67
2022/01/15 05:30:38;;;;;;;;;112.00;100.00;;;;;-142.59;100.00;56100.38;4913136;28;49800;-66
2022/01/15 05:33:04;;;;;;;;;118.67;103.00;;;;;-142.59;100.00;56100.38;4913288;28;49964;-67
2022/01/15 05:35:29;;;;;;;;;109.25;100.50;;;;;-142.59;100.00;56100.38;4912871;28;50595;-66
2022/01/15 05:37:57;;;;;;;;;111.67;100.00;;;;;-142.59;100.00;56100.38;4913038;28;49740;-65
2022/01/15 05:40:23;;;;;;;;;109.00;98.33;;;;;-142.59;100.00;56100.38;4912896;28;49762;-66
2022/01/15 05:42:48;;;;;;;;;119.33;106.67;;;;;-142.59;100.00;56100.38;4912886;28;49877;-67
2022/01/15 05:45:14;;;;;;;;;109.00;99.67;;;;;-142.59;100.00;56100.38;4912823;28;49754;-66
2022/01/15 05:47:40;;;;;;;;;114.00;102.67;;;;;-142.59;100.00;56100.38;4913052;28;49927;-66
2022/01/15 05:50:06;;;;;;;;;108.67;94.33;;;;;-142.59;100.00;56100.38;4912985;28;49777;-65
2022/01/15 05:52:31;;;;;;;;;115.67;95.67;;;;;-142.59;100.00;56100.38;4912897;28;49877;-65
2022/01/15 05:54:57;;;;;;;;;106.33;93.00;;;;;-142.59;100.00;56100.38;4912625;28;50672;-66
2022/01/15 05:57:22;;;;;;;;;103.33;87.33;;;;;-142.59;100.00;56100.38;4912476;28;49796;-67
2022/01/15 05:59:51;;;;;;;;;108.33;97.67;;;;;-142.59;100.00;56100.38;4895485;28;49697;-68
2022/01/15 06:02:17;;;;;;;;;109.00;90.33;;;;;-142.59;100.00;56100.38;4912837;28;49898;-66
2022/01/15 06:04:42;;;;;;;;;105.00;90.33;;;;;-142.59;100.00;56100.38;4912611;28;50779;-66
2022/01/15 06:07:07;;;;;;;;;106.33;91.00;;;;;-142.59;100.00;56100.38;4912615;28;49767;-65
2022/01/15 06:09:33;;;;;;;;;95.00;77.33;;;;;-142.59;100.00;56100.38;4912831;28;49848;-66
2022/01/15 06:12:00;;;;;;;;;103.67;93.33;;;;;-142.59;100.00;56100.38;4912681;28;50001;-65
2022/01/15 06:14:26;;;;;;;;;110.33;97.00;;;;;-142.59;100.00;56100.38;4895343;28;52400;-70
2022/01/15 06:16:51;;;;;;;;;108.00;92.67;;;;;-142.59;100.00;56100.38;4912556;28;49951;-65
2022/01/15 06:19:16;;;;;;;;;102.67;83.00;;;;;-142.59;100.00;56100.38;4912638;28;49741;-69
2022/01/15 06:21:42;;;;;;;;;109.33;95.67;;;;;-142.59;100.00;56100.38;4912531;28;49934;-66
2022/01/15 06:24:07;;;;;;;;;114.67;98.00;;;;;-142.59;100.00;56100.38;4912446;28;49692;-66
2022/01/15 06:26:33;;;;;;;;;111.00;100.33;;;;;-142.59;100.00;56100.38;4912613;28;49671;-67
2022/01/15 06:28:58;;;;;;;;;110.67;95.33;;;;;-142.59;100.00;56100.38;4912213;28;49595;-65
2022/01/15 06:31:23;;;;;;;;;103.67;91.33;;;;;-142.59;100.00;56100.38;4912995;28;50023;-68
2022/01/15 06:33:49;;;;;;;;;111.00;98.00;;;;;-142.59;100.00;56100.38;4914973;28;50750;-70
2022/01/15 06:36:14;;;;;;;;;108.33;86.67;;;;;-142.59;100.00;56100.38;4915529;28;49693;-65
2022/01/15 06:38:39;;;;;;;;;105.33;92.67;;;;;-142.59;100.00;56100.38;4915706;28;49709;-69
2022/01/15 06:41:05;;;;;;;;;109.67;93.33;;;;;-142.59;100.00;56100.38;4915805;28;49948;-67
2022/01/15 06:43:30;;;;;;;;;111.00;97.00;;;;;-142.59;100.00;56100.38;4914974;28;51932;-65
2022/01/15 06:45:55;;;;;;;;;111.33;99.00;;;;;-142.59;100.00;56100.38;4915863;28;49931;-68
2022/01/15 06:48:21;;;;;;;;;109.00;101.00;;;;;-142.59;100.00;56100.38;4912979;28;49578;-70
2022/01/15 06:50:47;;;;;;;;;110.67;94.33;;;;;-142.59;100.00;56100.38;4912977;28;50268;-68
2022/01/15 06:53:15;;;;;;;;;106.33;95.00;;;;;-142.59;100.00;56100.38;4896987;28;51624;-69
2022/01/15 06:55:41;;;;;;;;;111.33;99.67;;;;;-142.59;100.00;56100.38;4913762;28;49793;-67
2022/01/15 06:58:06;;;;;;;;;110.67;101.00;;;;;-142.59;100.00;56100.38;4914798;28;49813;-67
2022/01/15 07:00:32;;;;;;;;;104.00;85.33;;;;;-142.59;100.00;56100.38;4915346;28;49896;-66
2022/01/15 07:03:01;;;;;;;;;107.00;93.33;;;;;-142.59;100.00;56100.38;4896879;28;51137;-71
2022/01/15 07:05:26;;;;;;;;;108.00;90.67;;;;;-142.59;100.00;56100.38;4897579;28;49866;-70
2022/01/15 07:07:52;;;;;;;;;102.00;89.67;;;;;-142.59;100.00;56100.38;4915327;28;49911;-67
2022/01/15 07:10:18;;;;;;;;;103.00;90.33;;;;;-142.59;100.00;56100.38;4897954;28;50005;-72
2022/01/15 07:12:43;;;;;;;;;108.67;95.67;;;;;-142.59;100.00;56100.38;4914444;28;50911;-70
2022/01/15 07:15:11;;;;;;;;;105.67;90.00;;;;;-142.59;100.00;56100.38;4897595;28;49729;-67
2022/01/15 07:17:42;;;;;;;;;104.67;88.33;;;;;-142.59;100.00;56100.38;4914608;28;49729;-67
2022/01/15 07:20:08;;;;;;;;;111.00;97.33;;;;;-142.59;100.00;56100.38;4914869;28;49792;-67
2022/01/15 07:22:33;;;;;;;;;107.33;91.67;;;;;-142.59;100.00;56100.38;4914628;28;50724;-67
2022/01/15 07:24:58;;;;;;;;;99.33;79.00;;;;;-142.59;100.00;56100.38;4914494;28;49904;-66
2022/01/15 07:27:24;;;;;;;;;108.67;98.67;;;;;-142.59;100.00;56100.38;4914439;28;49770;-67
2022/01/15 07:29:49;;;;;;;;;106.33;87.00;;;;;-142.59;100.00;56100.38;4914820;28;49613;-67
2022/01/15 07:32:14;;;;;;;;;109.33;86.67;;;;;-142.59;100.00;56100.38;4914289;28;49934;-66
2022/01/15 07:34:40;;;;;;;;;110.00;91.33;;;;;-142.59;100.00;56100.38;4914398;28;49832;-66
2022/01/15 07:37:05;;;;;;;;;109.00;97.67;;;;;-142.59;100.00;56100.38;4896961;28;49722;-66
2022/01/15 07:39:31;;;;;;;;;108.67;94.67;;;;;-142.59;100.00;56100.38;4914669;28;49955;-66
2022/01/15 07:41:56;;;;;;;;;103.33;85.67;;;;;-142.59;100.00;56100.38;4913767;28;49667;-66
2022/01/15 07:44:22;;;;;;;;;108.33;95.67;;;;;-142.59;100.00;56100.38;4913421;28;49780;-67
2022/01/15 07:46:47;;;;;;;;;112.33;97.33;;;;;-142.59;100.00;56100.38;4914195;28;49709;-66
2022/01/15 07:49:13;;;;;;;;;104.33;84.00;;;;;-142.59;100.00;56100.38;4914378;28;49974;-66
2022/01/15 07:51:38;;;;;;;;;110.67;91.33;;;;;-142.59;100.00;56100.38;4896813;28;51370;-66
2022/01/15 07:54:03;;;;;;;;;108.33;88.67;;;;;-142.59;100.00;56100.38;4914372;28;49755;-65
2022/01/15 07:56:29;;;;;;;;;109.33;96.67;;;;;-142.59;100.00;56100.38;4896917;28;49920;-66
2022/01/15 07:58:54;;;;;;;;;108.67;94.33;;;;;-142.59;100.00;56100.38;4914231;28;49749;-65
2022/01/15 08:01:19;;;;;;;;;108.00;95.33;;;;;-142.59;100.00;56100.38;4913608;28;50128;-65
2022/01/15 08:03:46;;;;;;;;;108.67;93.00;;;;;-142.59;100.00;56100.38;4896794;28;49922;-66
2022/01/15 08:06:12;;;;;;;;;107.33;94.67;;;;;-142.59;100.00;56100.38;4913977;28;49782;-68
2022/01/15 08:08:37;;;;;;;;;108.00;91.33;;;;;-142.59;100.00;56100.38;4900782;28;49874;-67
2022/01/15 08:11:03;;;;;;;;;106.33;93.67;;;;;-142.59;100.00;56100.38;4895705;28;49904;-67
2022/01/15 08:13:31;;;;;;;;;111.00;98.33;;;;;-142.59;100.00;56100.38;4895533;28;49873;-75
2022/01/15 08:15:57;;;;;;;;;111.67;97.67;;;;;-142.59;100.00;56100.38;4902472;28;49753;-74
2022/01/15 08:18:23;;;;;;;;;110.33;94.33;;;;;-142.59;100.00;56100.38;4896958;28;49866;-74
2022/01/15 08:20:49;;;;;;;;;110.67;101.67;;;;;-142.59;100.00;56100.38;4913637;28;49937;-69
2022/01/15 08:23:15;;;;;;;;;118.67;100.00;;;;;-142.59;100.00;56100.38;4914168;28;49782;-81
2022/01/15 08:25:40;;;;;;;;;117.00;100.67;;;;;-142.59;100.00;56100.38;4896020;28;50002;-73
2022/01/15 08:28:06;;;;;;;;;110.33;103.00;;;;;-142.59;100.00;56100.38;4890548;29;49968;-69
2022/01/15 08:30:31;;;;;;;;;130.25;116.25;;;;;-142.59;100.00;56100.38;4895035;28;49927;-74
2022/01/15 08:32:57;;;;;;;;;107.67;86.33;;;;;-142.59;100.00;56100.38;4895368;28;49773;-72
2022/01/15 08:35:22;;;;;;;;;123.33;108.67;;;;;-142.59;100.00;56100.38;4895772;28;49841;-71
2022/01/15 08:37:48;;;;;;;;;109.00;95.00;;;;;-142.59;100.00;56100.38;4878387;29;50200;-67
2022/01/15 08:40:15;;;;;;;;;117.33;100.00;;;;;-142.59;100.00;56100.38;4874882;29;51040;-65
2022/01/15 08:42:41;;;;;;;;;129.00;116.00;;;;;-142.59;100.00;56100.38;4893062;28;49783;-67
2022/01/15 08:45:09;;;;;;;;;131.50;115.50;;;;;-142.59;100.00;56100.38;4895061;28;49872;-65
2022/01/15 08:47:35;;;;;;;;;122.00;110.50;;;;;-142.59;100.00;56100.38;4875231;29;49927;-71
2022/01/15 08:50:01;;;;;;;;;133.00;114.33;;;;;-142.59;100.00;56100.38;4892673;28;49937;-75
2022/01/15 08:52:26;;;;;;;;;129.75;117.50;;;;;-142.59;100.00;56100.38;4895563;28;49975;-75
2022/01/15 08:54:52;;;;;;;;;125.75;112.50;;;;;-142.59;100.00;56100.38;4894948;28;49789;-72
2022/01/15 08:57:17;;;;;;;;;129.00;119.00;;;;;-142.59;100.00;56100.38;4895084;28;49805;-70
2022/01/15 08:59:43;;;;;;;;;132.75;115.75;;;;;-142.59;100.00;56100.38;4894659;28;49951;-68
2022/01/15 09:02:08;;;;;;;;;125.00;117.50;;;;;-142.59;100.00;56100.38;4896859;28;49964;-68
2022/01/15 09:04:34;;;;;;;;;138.00;124.75;;;;;-142.59;100.00;56100.38;4913499;28;49865;-67
2022/01/15 09:07:00;;;;;;;;;124.00;103.33;;;;;-142.59;100.00;56100.38;4913659;28;49666;-67
2022/01/15 09:09:25;;;;;;;;;120.33;105.00;;;;;-142.59;100.00;56100.38;4913355;28;50053;-68
2022/01/15 09:11:51;;;;;;;;;117.33;108.33;;;;;-142.59;100.00;56100.38;4912830;28;49766;-74
2022/01/15 09:14:17;;;;;;;;;115.33;104.67;;;;;-142.59;100.00;56100.38;4913220;28;49792;-68
2022/01/15 09:16:43;;;;;;;;;125.00;111.67;;;;;-142.59;100.00;56100.38;4913724;28;49906;-69
2022/01/15 09:19:08;;;;;;;;;127.33;107.33;;;;;-142.59;100.00;56100.38;4912595;28;50521;-69
2022/01/15 09:21:34;;;;;;;;;126.75;109.25;;;;;-142.59;100.00;56100.38;4912280;28;50805;-72
2022/01/15 09:24:00;;;;;;;;;126.67;114.33;;;;;-142.59;100.00;56100.38;4911732;28;49597;-69
2022/01/15 09:26:47;;;;;;;;;119.33;106.00;;;;;-142.59;100.00;56100.38;4913233;28;50110;-68
2022/01/15 09:31:56;;;;;;;;;117.33;111.00;;;;;-142.59;100.00;56100.38;4913070;28;49660;-69
2022/01/15 09:34:22;;;;;;;;;115.00;106.00;;;;;-142.59;100.00;56100.38;4895621;28;49751;-69
2022/01/15 09:36:47;;;;;;;;;112.33;104.00;;;;;-142.59;100.00;56100.38;4913120;28;49832;-69
2022/01/15 09:39:12;;;;;;;;;108.67;99.67;;;;;-142.59;100.00;56100.38;4912660;28;50784;-68
2022/01/15 09:41:45;;;;;;;;;104.33;90.33;;;;;-142.59;100.00;56100.38;4912659;28;49726;-68
2022/01/15 09:44:13;;;;;;;;;128.33;112.67;;;;;-142.59;100.00;56100.38;4911450;28;49853;-68
2022/01/15 09:46:39;;;;;;;;;124.67;104.00;;;;;-142.59;100.00;56100.38;4913063;28;50015;-69
2022/01/15 09:49:06;;;;;;;;;118.33;110.33;;;;;-142.59;100.00;56100.38;4895453;28;50818;-69
2022/01/15 09:51:32;;;;;;;;;130.75;113.50;;;;;-142.59;100.00;56100.38;4912668;28;49809;-68
2022/01/15 09:53:58;;;;;;;;;123.75;112.00;;;;;-142.59;100.00;56100.38;4912836;28;49802;-68
2022/01/15 09:56:24;;;;;;;;;116.25;109.25;;;;;-142.59;100.00;56100.38;4913004;28;49889;-68
2022/01/15 09:58:49;;;;;;;;;129.25;114.50;;;;;-142.59;100.00;56100.38;4912857;28;50296;-69
2022/01/15 10:01:14;;;;;;;;;106.00;88.00;;;;;-142.59;100.00;56100.38;4912584;28;49840;-67
2022/01/15 10:03:40;;;;;;;;;116.50;106.75;;;;;-142.59;100.00;56100.38;4912718;28;50473;-68
2022/01/15 10:06:06;;;;;;;;;120.75;109.75;;;;;-142.59;100.00;56100.38;4912788;28;49877;-67
2022/01/15 10:08:31;;;;;;;;;131.50;114.25;;;;;-142.59;100.00;56100.38;4914771;28;50223;-69
2022/01/15 10:10:58;;;;;;;;;136.75;126.00;;;;;-142.59;100.00;56100.38;4915951;28;49792;-70
2022/01/15 10:13:28;;;;;;;;;135.00;120.75;;;;;-142.59;100.00;56100.38;4898533;28;49701;-68
2022/01/15 10:15:59;;;;;;;;;146.00;129.00;;;;;-142.59;100.00;56100.38;4916293;28;49878;-68
2022/01/15 10:18:29;;;;;;;;;140.50;120.00;;;;;-142.59;100.00;56100.38;4915820;28;50756;-67
2022/01/15 10:21:08;;;;;;;;;147.00;133.50;;;;;-142.59;100.00;56100.38;4915844;28;49602;-67
2022/01/15 10:23:56;;;;;;;;;132.00;119.25;;;;;-142.59;100.00;56100.38;4916152;28;49820;-68
2022/01/15 10:26:26;;;;;;;;;136.50;123.50;;;;;-142.59;100.00;56100.38;4898853;28;49697;-68
2022/01/15 10:29:02;;;;;;;;;137.00;121.25;;;;;-142.59;100.00;56100.38;4915796;28;51758;-68
2022/01/15 10:31:30;;;;;;;;;145.00;129.00;;;;;-142.59;100.00;56100.38;4915520;28;49795;-67
2022/01/15 10:33:57;;;;;;;;;134.50;123.00;;;;;-142.59;100.00;56100.38;4898756;28;49805;-68
2022/01/15 10:36:30;;;;;;;;;163.50;141.00;;;;;-142.59;100.00;56100.38;4902308;28;50023;-70
2022/01/15 10:39:15;;;;;;;;;155.75;143.75;;;;;-142.59;100.00;56100.38;4915384;28;49717;-72
2022/01/15 10:41:41;;;;;;;;;148.75;125.75;;;;;-142.59;100.00;56100.38;4915254;28;49987;-64
2022/01/15 10:44:28;;;;;;;;;133.25;125.50;;;;;-142.59;100.00;56100.38;4915681;28;49911;-65
2022/01/15 10:47:07;;;;;;;;;144.75;135.25;;;;;-142.59;100.00;56100.38;4898568;28;49656;-67
2022/01/15 10:49:33;;;;;;;;;141.25;129.00;;;;;-142.59;100.00;56100.38;4915223;28;50666;-71
2022/01/15 10:52:04;;;;;;;;;148.25;138.75;;;;;-142.59;100.00;56100.38;4915448;28;49799;-68
2022/01/15 10:54:30;;;;;;;;;143.25;127.25;;;;;-142.59;100.00;56100.38;4898246;28;49779;-68
2022/01/15 10:57:09;;;;;;;;;153.75;134.25;;;;;-142.59;100.00;56100.38;4915183;28;50090;-71
2022/01/15 10:59:36;;;;;;;;;150.50;132.50;;;;;-142.59;100.00;56100.38;4915567;28;50063;-67
2022/01/15 11:02:18;;;;;;;;;144.00;123.75;;;;;-142.59;100.00;56100.38;4898126;28;49731;-71
2022/01/15 11:04:43;;;;;;;;;149.25;132.75;;;;;-142.59;100.00;56100.38;4915382;28;49851;-68
2022/01/15 11:07:13;;;;;;;;;147.00;131.00;;;;;-142.59;100.00;56100.38;4915350;28;49752;-71
2022/01/15 11:09:39;;;;;;;;;140.50;126.75;;;;;-142.59;100.00;56100.38;4915034;28;49792;-71
2022/01/15 11:12:05;;;;;;;;;130.50;117.75;;;;;-142.59;100.00;56100.38;4897783;28;49930;-72